Friday, April 18, 2014, 3:43 PM CDT
Back to Local

KHDC, Hammond, Hammond Municipal Airport

Location: Hammond, LA, United States Lat: 30.521
Local Time: 3:43 PM CDT (20:43 GMT) Lon: -90.418
Time Zone: US/Central Elev: 42 ft

Show me the last for .
Show Coded

Time T Td Feel RH Dir Speed Gust Alt SLP Vis Weather Sky Remarks
2014-04-18 15:15 77 54 78 44 30° 12 18 30.07 - 10 SCT045 None
2014-04-18 14:55 77 52 78 41 30° 12 20 30.08 - 10 SCT043 None
2014-04-18 14:35 77 54 78 44 20° 13 20 30.08 - 10 SCT043 None
2014-04-18 14:15 77 54 78 44 360° 14 20 30.08 - 10 SCT043 None
2014-04-18 13:55 77 55 78 47 360° 13 20 30.08 - 10 SCT039 None
2014-04-18 13:35 77 54 78 44 20° 9 18 30.08 - 10 SCT039 None
2014-04-18 13:15 75 54 77 47 30° 12 21 30.09 - 10 SCT037 BKN043 None
2014-04-18 12:55 77 55 78 47 50° 9 20 30.10 - 10 SCT035 SCT041 SCT048 None
2014-04-18 12:35 75 57 78 53 360° 7 - 30.10 - 10 SCT037 BKN043 None
2014-04-18 12:15 77 55 78 47 10° 10 - 30.10 - 10 SCT032 SCT038 BKN045 None
2014-04-18 11:55 75 57 78 53 360° 12 17 30.12 - 10 SCT031 BKN039 BKN045 None
2014-04-18 11:35 73 57 77 56 10° 10 - 30.12 - 10 BKN031 BKN037 None
2014-04-18 11:15 73 57 77 56 30° 7 10 30.13 - 10 BKN030 BKN036 None
2014-04-18 10:55 75 57 78 53 20° 10 - 30.13 - 10 SCT028 None
2014-04-18 10:35 72 57 76 60 60° 10 - 30.13 - 10 CLR None
2014-04-18 10:15 72 57 76 60 30° 10 - 30.13 - 10 CLR None
2014-04-18 09:35 70 57 - 64 10° 8 - 30.13 - 10 CLR None
2014-04-18 09:15 68 59 - 72 360° 8 - 30.13 - 10 CLR None
2014-04-18 08:55 68 59 - 72 20° 7 - 30.12 - 10 CLR None
2014-04-18 08:35 66 57 - 72 360° 8 - 30.13 - 10 SCT010 None
2014-04-18 08:15 64 57 - 77 10° 6 - 30.13 - 10 BKN010 None
2014-04-18 07:55 63 57 - 82 340° 7 - 30.14 - 10 OVC010 None
2014-04-18 07:35 63 57 - 82 340° 6 - 30.14 - 10 BKN010 None
2014-04-18 07:15 61 55 - 82 360° 3 - 30.13 - 10 SCT010 BKN040 BKN060 None
2014-04-18 06:55 61 55 - 82 - Calm - 30.12 - 10 SCT011 OVC040 None
2014-04-18 06:35 61 55 - 82 360° 5 - 30.12 - 10 OVC011 None
2014-04-18 06:15 61 55 - 82 360° 6 - 30.11 - 10 OVC013 None
2014-04-18 05:55 61 55 - 82 360° 5 - 30.11 - 10 BKN015 OVC026 None
2014-04-18 05:35 61 55 - 82 360° 5 - 30.10 - 10 BKN013 OVC024 None
2014-04-18 05:15 61 55 - 82 360° 5 - 30.10 - 10 OVC013 None
2014-04-18 04:55 61 55 - 82 360° 5 - 30.10 - 10 OVC015 None
2014-04-18 04:35 61 55 - 82 20° 3 - 30.10 - 10 OVC015 None
2014-04-18 04:15 61 55 - 82 360° 5 - 30.10 - 10 OVC015 None
2014-04-18 03:55 61 55 - 82 350° 6 - 30.10 - 10 OVC015 None
2014-04-18 03:35 61 55 - 82 340° 7 - 30.10 - 10 OVC015 None
2014-04-18 03:15 61 57 - 87 320° 7 - 30.10 - 10 OVC015 None
2014-04-18 02:55 61 57 - 87 320° 5 - 30.10 - 10 OVC015 None
2014-04-18 02:35 61 57 - 87 - Calm - 30.10 - 10 OVC015 None
2014-04-18 02:15 61 57 - 87 - Calm - 30.10 - 10 BKN017 OVC100 None
2014-04-18 01:55 61 57 - 87 360° 3 - 30.11 - 10 SCT017 OVC090 None
2014-04-18 01:35 61 55 - 82 - Calm - 30.12 - 10 SCT017 OVC090 None
2014-04-18 01:15 61 57 - 87 100° 5 - 30.13 - 10 OVC100 None
2014-04-18 00:55 61 55 - 82 - Calm - 30.13 - 10 OVC090 None
2014-04-18 00:35 61 57 - 87 50° 5 - 30.13 - 10 OVC090 None
2014-04-18 00:15 61 57 - 87 40° 3 - 30.14 - 10 OVC090 None
2014-04-17 23:55 61 57 - 87 - Calm - 30.14 - 10 OVC090 None
2014-04-17 23:35 61 57 - 87 - Calm - 30.14 - 10 OVC090 None
2014-04-17 23:15 61 57 - 87 - Calm - 30.15 - 10 OVC090 None
2014-04-17 22:55 61 57 - 87 - Calm - 30.15 - 10 OVC090 None
2014-04-17 22:35 61 57 - 87 70° 5 - 30.14 - 10 OVC100 None
2014-04-17 22:15 61 57 - 87 50° 3 - 30.14 - 10 -RA OVC100 None
2014-04-17 21:55 63 57 - 82 60° 5 - 30.15 - 7 RA SCT030 OVC100 1-hr Precip Total: 0.01"
2014-04-17 21:35 63 57 - 82 40° 3 - 30.15 - 10 DZ OVC030 None
2014-04-17 21:15 63 57 - 82 40° 3 - 30.15 - 10 RA BKN021 OVC030 None
2014-04-17 20:55 63 57 - 82 - Calm - 30.15 - 10 BKN021 BKN033 OVC120 None
2014-04-17 20:35 63 57 - 82 - Calm - 30.14 - 10 SCT025 SCT033 OVC120 None
2014-04-17 20:15 63 57 - 82 50° 3 - 30.14 - 10 BKN033 BKN040 OVC120 None
2014-04-17 19:55 63 57 - 82 - Calm - 30.15 - 10 BKN033 BKN039 BKN050 None
2014-04-17 19:35 64 57 - 77 70° 3 - 30.15 - 10 SCT035 SCT043 BKN050 None
2014-04-17 19:15 64 57 - 77 - Calm - 30.15 - 10 SCT028 BKN039 OVC050 None
2014-04-17 18:55 64 57 - 77 - Calm - 30.16 - 10 BKN028 BKN035 BKN049 None
2014-04-17 18:35 64 57 - 77 - Calm - 30.17 - 10 BKN024 BKN033 BKN047 None
2014-04-17 18:15 64 57 - 77 - Calm - 30.17 - 10 OVC022 None
2014-04-17 17:55 64 57 - 77 - Calm - 30.17 - 10 BKN022 BKN028 None
2014-04-17 17:35 64 57 - 77 100° 5 - 30.16 - 10 BKN022 BKN028 None
2014-04-17 16:55 64 57 - 77 100° 7 - 30.16 - 10 OVC017 None
2014-04-17 16:35 64 57 - 77 90° 3 - 30.17 - 10 OVC017 None
2014-04-17 16:15 64 57 - 77 100° 6 - 30.17 - 10 OVC017 None
2014-04-17 15:55 66 57 - 72 90° 7 - 30.16 - 10 BKN017 BKN023 None

Support USWX by starting your Amazon purchase here.